createdAt,value
2018-08-12T00:00:27.953Z,78.18
2018-08-12T00:02:58.585Z,77.75
2018-08-12T00:05:28.057Z,78.05
2018-08-12T00:07:57.567Z,78.69
2018-08-12T00:10:27.144Z,78.33
2018-08-12T00:12:56.590Z,78.34
2018-08-12T00:15:26.085Z,78.94
2018-08-12T00:17:55.546Z,78.98
2018-08-12T00:20:25.045Z,79.43
2018-08-12T00:22:54.511Z,79.80
2018-08-12T00:25:24.492Z,78.98
2018-08-12T00:27:53.994Z,79.41
2018-08-12T00:30:23.491Z,78.81
2018-08-12T00:32:52.942Z,79.01
2018-08-12T00:35:22.440Z,78.65
2018-08-12T00:37:51.960Z,78.84
2018-08-12T00:40:21.435Z,79.08
2018-08-12T00:42:50.877Z,79.66
2018-08-12T00:45:21.286Z,79.82
2018-08-12T00:47:51.105Z,79.92
2018-08-12T00:50:20.769Z,80.19
2018-08-12T00:52:50.260Z,79.57
2018-08-12T00:55:19.924Z,80.49
2018-08-12T00:57:49.591Z,80.45
2018-08-12T01:00:21.696Z,80.77
2018-08-12T01:02:51.194Z,81.06
2018-08-12T01:05:20.727Z,80.92
2018-08-12T01:07:50.691Z,81.11
2018-08-12T01:10:20.732Z,81.02
2018-08-12T01:12:50.097Z,80.89
2018-08-12T01:15:21.147Z,80.78
2018-08-12T01:17:50.759Z,80.67
2018-08-12T01:20:24.578Z,80.70
2018-08-12T01:22:54.186Z,80.91
2018-08-12T01:25:23.865Z,80.71
2018-08-12T01:27:53.330Z,80.67
2018-08-12T01:30:23.228Z,80.96
2018-08-12T01:32:52.673Z,81.83
2018-08-12T01:35:22.164Z,81.76
2018-08-12T01:37:51.639Z,81.57
2018-08-12T01:40:21.165Z,81.22
2018-08-12T01:42:50.622Z,81.21
2018-08-12T01:45:21.061Z,81.16
2018-08-12T01:47:50.516Z,81.21
2018-08-12T01:50:20.598Z,81.60
2018-08-12T01:52:50.089Z,81.86
2018-08-12T01:55:19.536Z,82.16
2018-08-12T01:57:48.924Z,81.79
2018-08-12T02:00:21.064Z,81.60
2018-08-12T02:02:50.739Z,81.89
2018-08-12T02:05:20.243Z,82.32
2018-08-12T02:07:49.727Z,82.41
2018-08-12T02:10:19.139Z,82.49
2018-08-12T02:12:48.662Z,82.22
2018-08-12T02:15:18.152Z,82.50
2018-08-12T02:17:47.589Z,82.21
2018-08-12T02:20:16.986Z,82.39
2018-08-12T02:22:46.410Z,82.45
2018-08-12T02:25:15.842Z,82.36
2018-08-12T02:27:45.337Z,82.99
2018-08-12T02:30:14.776Z,82.86
2018-08-12T02:32:44.460Z,82.74
2018-08-12T02:35:13.991Z,82.32
2018-08-12T02:37:43.428Z,82.43
2018-08-12T02:40:12.896Z,83.23
2018-08-12T02:42:42.352Z,82.61
2018-08-12T02:45:14.984Z,83.18
2018-08-12T02:47:44.569Z,83.63
2018-08-12T02:50:13.999Z,83.81
2018-08-12T02:52:43.492Z,83.62
2018-08-12T02:55:13.017Z,82.92
2018-08-12T02:57:42.448Z,83.25
2018-08-12T03:00:13.318Z,83.17
2018-08-12T03:02:42.774Z,82.96
2018-08-12T03:05:12.199Z,83.18
2018-08-12T03:07:41.616Z,82.97
2018-08-12T03:10:11.090Z,83.07
2018-08-12T03:12:40.504Z,82.68
2018-08-12T03:15:11.038Z,83.18
2018-08-12T03:17:40.521Z,83.34
2018-08-12T03:20:11.659Z,83.82
2018-08-12T03:22:41.159Z,83.31
2018-08-12T03:25:11.737Z,83.76
2018-08-12T03:27:41.194Z,83.30
2018-08-12T03:30:11.539Z,82.91
2018-08-12T03:32:41.286Z,83.58
2018-08-12T03:35:10.700Z,83.54
2018-08-12T03:37:40.160Z,84.29
2018-08-12T03:40:12.114Z,83.76
2018-08-12T03:42:41.777Z,83.16
2018-08-12T03:45:11.524Z,83.41
2018-08-12T03:47:40.980Z,82.90
2018-08-12T03:50:11.504Z,83.15
2018-08-12T03:52:41.066Z,83.25
2018-08-12T03:55:10.545Z,83.31
2018-08-12T03:57:40.039Z,83.50
2018-08-12T04:00:15.626Z,83.86
2018-08-12T04:02:46.003Z,84.07
2018-08-12T04:05:15.490Z,84.19
2018-08-12T04:07:44.956Z,84.40
2018-08-12T04:10:14.381Z,84.31
2018-08-12T04:12:43.807Z,84.75
2018-08-12T04:15:13.359Z,84.91
2018-08-12T04:17:42.940Z,84.81
2018-08-12T04:20:12.677Z,84.70
2018-08-12T04:22:42.112Z,84.47
2018-08-12T04:25:11.590Z,85.28
2018-08-12T04:27:41.041Z,85.24
2018-08-12T04:30:11.139Z,85.34
2018-08-12T04:32:40.731Z,84.92
2018-08-12T04:35:10.182Z,84.95
2018-08-12T04:37:39.643Z,84.88
2018-08-12T04:40:09.319Z,84.84
2018-08-12T04:42:38.744Z,84.83
2018-08-12T04:45:08.276Z,84.24
2018-08-12T04:47:37.969Z,84.97
2018-08-12T04:50:08.250Z,84.84
2018-08-12T04:52:38.015Z,84.78
2018-08-12T04:55:07.776Z,85.17
2018-08-12T04:57:37.215Z,84.82
2018-08-12T05:00:07.849Z,85.60
2018-08-12T05:02:37.269Z,85.16
2018-08-12T05:05:07.770Z,85.13
2018-08-12T05:07:37.199Z,85.16
2018-08-12T05:10:07.400Z,85.58
2018-08-12T05:12:36.820Z,85.68
2018-08-12T05:15:08.314Z,86.18
2018-08-12T05:17:37.754Z,86.04
2018-08-12T05:20:07.484Z,86.13
2018-08-12T05:22:36.981Z,85.12
2018-08-12T05:25:07.847Z,84.91
2018-08-12T05:27:38.323Z,84.43
2018-08-12T05:30:09.416Z,84.41
2018-08-12T05:32:39.557Z,84.74
2018-08-12T05:35:11.375Z,84.86
2018-08-12T05:37:40.872Z,83.97
2018-08-12T05:40:11.572Z,83.94
2018-08-12T05:42:41.132Z,83.88
2018-08-12T05:45:10.983Z,83.80
2018-08-12T05:47:41.402Z,83.66
2018-08-12T05:50:11.405Z,83.66
2018-08-12T05:52:40.918Z,83.56
2018-08-12T05:55:10.454Z,83.42
2018-08-12T05:57:39.958Z,83.45
2018-08-12T06:00:13.762Z,83.55
2018-08-12T06:02:44.416Z,83.73
2018-08-12T06:05:13.864Z,83.39
2018-08-12T06:07:44.119Z,83.69
2018-08-12T06:10:13.982Z,83.75
2018-08-12T06:12:43.551Z,84.52
2018-08-12T06:15:17.445Z,84.07
2018-08-12T06:17:47.039Z,84.42
2018-08-12T06:20:16.596Z,84.13
2018-08-12T06:22:46.088Z,83.90
2018-08-12T06:25:15.559Z,83.56
2018-08-12T06:27:45.080Z,83.61
2018-08-12T06:30:15.485Z,84.12
2018-08-12T06:32:44.944Z,83.72
2018-08-12T06:35:14.449Z,83.68
2018-08-12T06:37:44.015Z,83.87
2018-08-12T06:40:14.478Z,83.59
2018-08-12T06:42:45.215Z,83.72
2018-08-12T06:45:17.308Z,84.08
2018-08-12T06:47:47.824Z,84.15
2018-08-12T06:50:17.858Z,83.73
2018-08-12T06:52:47.307Z,83.68
2018-08-12T06:55:17.586Z,83.55
2018-08-12T06:57:47.030Z,83.79
2018-08-12T07:00:18.772Z,83.12
2018-08-12T07:02:48.280Z,83.14
2018-08-12T07:05:17.740Z,82.94
2018-08-12T07:07:47.204Z,82.58
2018-08-12T07:10:17.872Z,82.99
2018-08-12T07:12:47.400Z,83.05
2018-08-12T07:15:18.037Z,82.79
2018-08-12T07:17:47.912Z,83.30
2018-08-12T07:20:17.404Z,82.73
2018-08-12T07:22:46.775Z,82.60
2018-08-12T07:25:16.321Z,82.87
2018-08-12T07:27:45.784Z,82.09
2018-08-12T07:30:17.702Z,82.79
2018-08-12T07:32:47.154Z,82.46
2018-08-12T07:35:16.641Z,82.46
2018-08-12T07:37:46.096Z,82.28
2018-08-12T07:40:19.306Z,82.17
2018-08-12T07:42:49.527Z,82.35
2018-08-12T07:45:19.052Z,81.65
2018-08-12T07:47:48.636Z,81.23
2018-08-12T07:50:18.077Z,81.37
2018-08-12T07:52:47.553Z,80.99
2018-08-12T07:55:17.942Z,80.75
2018-08-12T07:57:47.971Z,80.77
2018-08-12T08:00:19.326Z,80.38
2018-08-12T08:02:49.760Z,79.67
2018-08-12T08:05:19.212Z,79.42
2018-08-12T08:07:48.726Z,79.01
2018-08-12T08:10:18.504Z,79.88
2018-08-12T08:12:48.813Z,79.57
2018-08-12T08:15:20.430Z,78.83
2018-08-12T08:17:50.192Z,78.39
2018-08-12T08:20:19.645Z,78.49
2018-08-12T08:22:49.141Z,78.14
2018-08-12T08:25:18.709Z,77.25
2018-08-12T08:27:48.208Z,76.96
2018-08-12T08:30:17.797Z,76.74
2018-08-12T08:32:47.234Z,76.93
2018-08-12T08:35:16.703Z,76.50
2018-08-12T08:37:46.215Z,75.72
2018-08-12T08:40:17.173Z,75.48
2018-08-12T08:42:47.051Z,75.02
2018-08-12T08:45:19.230Z,74.15
2018-08-12T08:47:49.724Z,74.14
2018-08-12T08:50:20.657Z,72.28
2018-08-12T08:52:50.308Z,71.60
2018-08-12T08:55:19.770Z,70.29
2018-08-12T08:57:49.236Z,66.59
2018-08-12T09:00:20.260Z,69.13
2018-08-12T09:02:53.115Z,68.14
2018-08-12T09:05:22.795Z,67.54
2018-08-12T09:07:52.594Z,67.62
2018-08-12T09:10:22.205Z,66.90
2018-08-12T09:12:52.168Z,66.63
2018-08-12T09:15:21.907Z,66.93
2018-08-12T09:17:51.920Z,65.79
2018-08-12T09:20:22.151Z,65.45
2018-08-12T09:22:52.521Z,63.84
2018-08-12T09:25:21.966Z,64.76
2018-08-12T09:27:51.423Z,63.96
2018-08-12T09:30:21.990Z,64.81
2018-08-12T09:32:51.457Z,62.36
2018-08-12T09:35:21.014Z,62.88
2018-08-12T09:37:50.488Z,61.11
2018-08-12T09:40:20.141Z,60.61
2018-08-12T09:42:49.579Z,61.22
2018-08-12T09:45:20.817Z,59.88
2018-08-12T09:47:50.329Z,59.10
2018-08-12T09:50:20.814Z,57.49
2018-08-12T09:52:51.405Z,60.47
2018-08-12T09:55:22.848Z,59.37
2018-08-12T09:57:52.270Z,58.85
2018-08-12T10:00:28.722Z,57.65
2018-08-12T10:02:58.362Z,57.67
2018-08-12T10:05:27.807Z,57.86
2018-08-12T10:07:57.325Z,56.63
2018-08-12T10:10:26.780Z,56.37
2018-08-12T10:12:56.343Z,56.98
2018-08-12T10:15:25.880Z,56.67
2018-08-12T10:17:57.932Z,55.44
2018-08-12T10:20:27.578Z,56.49
2018-08-12T10:22:57.080Z,54.51
2018-08-12T10:25:26.535Z,55.79
2018-08-12T10:27:56.080Z,55.31
2018-08-12T10:30:25.473Z,54.01
2018-08-12T10:32:54.957Z,54.14
2018-08-12T10:35:24.453Z,55.19
2018-08-12T10:37:53.957Z,54.89
2018-08-12T10:40:23.380Z,54.38
2018-08-12T10:42:53.347Z,55.40
2018-08-12T10:45:22.838Z,54.11
2018-08-12T10:47:52.385Z,53.62
2018-08-12T10:50:21.853Z,53.43
2018-08-12T10:52:53.588Z,53.44
2018-08-12T10:55:23.917Z,52.24
2018-08-12T10:57:53.506Z,51.88
2018-08-12T11:00:28.443Z,51.47
2018-08-12T11:02:58.653Z,53.21
2018-08-12T11:05:28.254Z,52.13
2018-08-12T11:07:58.894Z,51.42
2018-08-12T11:10:28.829Z,51.76
2018-08-12T11:12:58.426Z,52.11
2018-08-12T11:15:27.877Z,50.59
2018-08-12T11:17:57.928Z,47.60
2018-08-12T11:20:27.372Z,46.38
2018-08-12T11:22:56.821Z,48.23
2018-08-12T11:25:26.253Z,48.23
2018-08-12T11:27:55.769Z,47.14
2018-08-12T11:30:25.245Z,46.61
2018-08-12T11:32:54.752Z,46.92
2018-08-12T11:35:24.211Z,48.66
2018-08-12T11:37:53.683Z,48.43
2018-08-12T11:40:23.273Z,50.11
2018-08-12T11:42:52.696Z,46.18
2018-08-12T11:45:23.180Z,46.48
2018-08-12T11:47:52.689Z,47.25
2018-08-12T11:50:22.114Z,46.58
2018-08-12T11:52:51.552Z,46.77
2018-08-12T11:55:21.145Z,44.66
2018-08-12T11:57:51.299Z,44.90
2018-08-12T12:00:21.893Z,45.89
2018-08-12T12:02:52.355Z,46.21
2018-08-12T12:05:21.852Z,46.37
2018-08-12T12:07:51.311Z,43.87
2018-08-12T12:10:22.938Z,44.19
2018-08-12T12:12:53.428Z,45.03
2018-08-12T12:15:22.924Z,45.85
2018-08-12T12:17:52.359Z,44.15
2018-08-12T12:20:21.836Z,44.41
2018-08-12T12:22:51.299Z,43.80
2018-08-12T12:25:21.441Z,44.32
2018-08-12T12:27:50.927Z,44.33
2018-08-12T12:30:22.605Z,43.36
2018-08-12T12:32:53.482Z,45.56
2018-08-12T12:35:23.037Z,43.75
2018-08-12T12:37:53.137Z,44.43
2018-08-12T12:40:23.216Z,45.61
2018-08-12T12:42:52.773Z,44.78
2018-08-12T12:45:22.335Z,43.45
2018-08-12T12:47:51.741Z,43.00
2018-08-12T12:50:23.105Z,43.08
2018-08-12T12:52:53.251Z,42.18
2018-08-12T12:55:23.931Z,43.39
2018-08-12T12:57:53.438Z,42.75
2018-08-12T13:00:23.550Z,42.29
2018-08-12T13:02:53.326Z,40.06
2018-08-12T13:05:23.409Z,40.78
2018-08-12T13:07:52.918Z,38.49
2018-08-12T13:10:22.338Z,39.95
2018-08-12T13:12:51.862Z,41.14
2018-08-12T13:15:21.339Z,39.26
2018-08-12T13:17:50.848Z,38.32
2018-08-12T13:20:21.401Z,37.75
2018-08-12T13:22:51.195Z,37.51
2018-08-12T13:25:22.080Z,38.93
2018-08-12T13:27:51.640Z,39.10
2018-08-12T13:30:21.809Z,40.53
2018-08-12T13:32:51.530Z,39.43
2018-08-12T13:35:21.038Z,38.80
2018-08-12T13:37:50.581Z,38.53
2018-08-12T13:40:20.119Z,39.34
2018-08-12T13:42:50.386Z,40.70
2018-08-12T13:45:19.944Z,41.09
2018-08-12T13:47:49.388Z,41.51
2018-08-12T13:50:24.080Z,41.57
2018-08-12T13:52:54.321Z,40.13
2018-08-12T13:55:24.379Z,38.04
2018-08-12T13:57:54.479Z,39.45
2018-08-12T14:00:25.953Z,39.21
2018-08-12T14:02:55.422Z,39.45
2018-08-12T14:05:24.975Z,36.16
2018-08-12T14:07:54.430Z,38.70
2018-08-12T14:10:23.891Z,37.29
2018-08-12T14:12:53.376Z,36.45
2018-08-12T14:15:22.901Z,37.49
2018-08-12T14:17:52.418Z,37.70
2018-08-12T14:20:22.344Z,38.66
2018-08-12T14:22:51.803Z,38.53
2018-08-12T14:25:21.227Z,36.99
2018-08-12T14:27:50.788Z,36.69
2018-08-12T14:30:21.446Z,36.24
2018-08-12T14:32:51.208Z,36.41
2018-08-12T14:35:21.157Z,36.49
2018-08-12T14:37:50.597Z,36.76
2018-08-12T14:40:20.021Z,35.19
2018-08-12T14:42:49.493Z,35.45
2018-08-12T14:45:19.046Z,35.68
2018-08-12T14:47:48.593Z,35.02
2018-08-12T14:50:20.047Z,34.87
2018-08-12T14:52:49.587Z,34.60
2018-08-12T14:55:20.458Z,34.49
2018-08-12T14:57:49.985Z,37.19
2018-08-12T15:00:20.946Z,36.38
2018-08-12T15:02:51.999Z,37.05
2018-08-12T15:05:21.609Z,36.92
2018-08-12T15:07:51.216Z,36.19
2018-08-12T15:10:20.715Z,36.36
2018-08-12T15:12:50.145Z,35.08
2018-08-12T15:15:19.752Z,35.37
2018-08-12T15:17:49.185Z,34.70
2018-08-12T15:20:18.694Z,33.17
2018-08-12T15:22:48.186Z,33.08
2018-08-12T15:25:19.904Z,32.56
2018-08-12T15:27:50.272Z,33.15
2018-08-12T15:30:19.769Z,32.84
2018-08-12T15:32:49.227Z,36.06
2018-08-12T15:35:19.820Z,34.18
2018-08-12T15:37:49.319Z,33.85
2018-08-12T15:40:18.771Z,33.07
2018-08-12T15:42:48.263Z,33.24
2018-08-12T15:45:18.483Z,33.46
2018-08-12T15:47:48.482Z,35.13
2018-08-12T15:50:18.039Z,35.01
2018-08-12T15:52:47.985Z,35.58
2018-08-12T15:55:17.598Z,33.75
2018-08-12T15:57:47.274Z,35.49
2018-08-12T16:00:19.802Z,36.38
2018-08-12T16:02:49.963Z,36.01
2018-08-12T16:05:19.824Z,37.43
2018-08-12T16:07:49.802Z,36.59
2018-08-12T16:10:21.903Z,37.03
2018-08-12T16:12:52.632Z,37.57
2018-08-12T16:15:22.588Z,38.86
2018-08-12T16:17:52.700Z,39.65
2018-08-12T16:20:22.853Z,36.99
2018-08-12T16:22:52.445Z,36.31
2018-08-12T16:25:22.476Z,36.47
2018-08-12T16:27:51.937Z,36.38
2018-08-12T16:30:21.465Z,39.12
2018-08-12T16:32:51.025Z,39.52
2018-08-12T16:35:20.654Z,41.35
2018-08-12T16:37:50.074Z,37.95
2018-08-12T16:40:21.935Z,38.88
2018-08-12T16:42:51.450Z,40.74
2018-08-12T16:45:21.147Z,40.72
2018-08-12T16:47:50.580Z,40.43
2018-08-12T16:50:20.059Z,40.79
2018-08-12T16:52:49.520Z,41.11
2018-08-12T16:55:19.651Z,41.76
2018-08-12T16:57:49.228Z,42.59
2018-08-12T17:00:21.922Z,43.13
2018-08-12T17:02:51.496Z,43.83
2018-08-12T17:05:22.936Z,43.66
2018-08-12T17:07:53.483Z,43.42
2018-08-12T17:10:22.936Z,40.48
2018-08-12T17:12:52.463Z,43.13
2018-08-12T17:15:22.897Z,43.76
2018-08-12T17:17:52.412Z,42.83
2018-08-12T17:20:22.616Z,43.91
2018-08-12T17:22:52.138Z,44.86
2018-08-12T17:25:21.691Z,46.88
2018-08-12T17:27:51.201Z,47.55
2018-08-12T17:30:20.645Z,48.32
2018-08-12T17:32:50.156Z,48.93
2018-08-12T17:35:19.638Z,49.75
2018-08-12T17:37:49.066Z,49.25
2018-08-12T17:40:18.565Z,50.21
2018-08-12T17:42:48.036Z,50.42
2018-08-12T17:45:18.707Z,50.35
2018-08-12T17:47:48.196Z,50.61
2018-08-12T17:50:18.276Z,50.88
2018-08-12T17:52:48.381Z,51.29
2018-08-12T17:55:17.856Z,51.47
2018-08-12T17:57:47.371Z,52.16
2018-08-12T18:00:17.280Z,52.34
2018-08-12T18:02:46.796Z,51.83
2018-08-12T18:05:16.251Z,51.93
2018-08-12T18:07:45.747Z,51.81
2018-08-12T18:10:15.282Z,51.82
2018-08-12T18:12:44.682Z,51.97
2018-08-12T18:15:14.239Z,52.06
2018-08-12T18:17:43.708Z,52.13
2018-08-12T18:20:13.230Z,52.47
2018-08-12T18:22:42.733Z,52.22
2018-08-12T18:25:12.601Z,52.38
2018-08-12T18:27:42.119Z,52.63
2018-08-12T18:30:14.472Z,53.67
2018-08-12T18:32:44.091Z,53.65
2018-08-12T18:35:13.969Z,53.93
2018-08-12T18:37:43.540Z,54.47
2018-08-12T18:40:13.531Z,55.31
2018-08-12T18:42:44.628Z,54.85
2018-08-12T18:45:14.616Z,55.19
2018-08-12T18:47:44.177Z,54.92
2018-08-12T18:50:13.601Z,56.02
2018-08-12T18:52:43.044Z,55.86
2018-08-12T18:55:13.214Z,56.71
2018-08-12T18:57:42.647Z,56.13
2018-08-12T19:00:14.151Z,56.76
2018-08-12T19:02:43.644Z,57.11
2018-08-12T19:05:13.617Z,57.83
2018-08-12T19:07:43.044Z,58.90
2018-08-12T19:10:12.762Z,58.34
2018-08-12T19:12:43.074Z,58.00
2018-08-12T19:15:13.228Z,58.76
2018-08-12T19:17:42.748Z,59.55
2018-08-12T19:20:12.767Z,59.73
2018-08-12T19:22:42.245Z,60.13
2018-08-12T19:25:11.723Z,60.66
2018-08-12T19:27:41.270Z,60.88
2018-08-12T19:30:12.492Z,60.59
2018-08-12T19:32:41.982Z,61.22
2018-08-12T19:35:12.103Z,61.62
2018-08-12T19:37:41.820Z,62.04
2018-08-12T19:40:11.353Z,62.14
2018-08-12T19:42:41.701Z,62.45
2018-08-12T19:45:12.089Z,63.32
2018-08-12T19:47:41.503Z,63.27
2018-08-12T19:50:11.088Z,63.79
2018-08-12T19:52:40.559Z,63.87
2018-08-12T19:55:10.094Z,64.00
2018-08-12T19:57:39.561Z,64.18
2018-08-12T20:00:13.223Z,63.91
2018-08-12T20:02:43.361Z,65.17
2018-08-12T20:05:15.305Z,65.22
2018-08-12T20:07:44.850Z,65.29
2018-08-12T20:10:14.277Z,65.59
2018-08-12T20:12:44.434Z,66.26
2018-08-12T20:15:13.851Z,66.52
2018-08-12T20:17:43.340Z,66.82
2018-08-12T20:20:14.167Z,67.21
2018-08-12T20:22:43.712Z,66.62
2018-08-12T20:25:13.210Z,66.96
2018-08-12T20:27:42.704Z,67.14
2018-08-12T20:30:13.167Z,67.78
2018-08-12T20:32:42.883Z,68.62
2018-08-12T20:35:12.344Z,68.68
2018-08-12T20:37:41.816Z,69.12
2018-08-12T20:40:11.398Z,69.21
2018-08-12T20:42:40.873Z,68.95
2018-08-12T20:45:10.326Z,70.09
2018-08-12T20:47:39.719Z,69.99
2018-08-12T20:50:11.576Z,70.20
2018-08-12T20:52:41.056Z,70.11
2018-08-12T20:55:10.557Z,70.04
2018-08-12T20:57:40.016Z,69.71
2018-08-12T21:00:11.737Z,70.58
2018-08-12T21:02:41.276Z,70.18
2018-08-12T21:05:10.739Z,70.10
2018-08-12T21:07:41.418Z,70.09
2018-08-12T21:10:11.605Z,70.67
2018-08-12T21:12:41.548Z,70.99
2018-08-12T21:15:11.061Z,71.27
2018-08-12T21:17:40.499Z,71.63
2018-08-12T21:20:09.986Z,71.84
2018-08-12T21:22:39.668Z,71.46
2018-08-12T21:25:09.574Z,72.18
2018-08-12T21:27:39.037Z,72.27
2018-08-12T21:30:08.585Z,72.15
2018-08-12T21:32:38.002Z,72.31
2018-08-12T21:35:07.503Z,72.42
2018-08-12T21:37:36.907Z,72.29
2018-08-12T21:40:06.502Z,71.97
2018-08-12T21:42:36.634Z,72.63
2018-08-12T21:45:06.765Z,72.73
2018-08-12T21:47:36.959Z,72.59
2018-08-12T21:50:06.782Z,72.25
2018-08-12T21:52:36.297Z,72.39
2018-08-12T21:55:05.784Z,71.87
2018-08-12T21:57:35.237Z,72.99
2018-08-12T22:00:09.804Z,72.94
2018-08-12T22:02:39.278Z,73.30
2018-08-12T22:05:09.100Z,73.30
2018-08-12T22:07:38.677Z,73.54
2018-08-12T22:10:08.336Z,73.76
2018-08-12T22:12:37.757Z,74.19
2018-08-12T22:15:07.874Z,74.40
2018-08-12T22:17:38.558Z,74.81
2018-08-12T22:20:08.011Z,74.12
2018-08-12T22:22:37.450Z,74.34
2018-08-12T22:25:06.955Z,75.04
2018-08-12T22:27:36.507Z,74.51
2018-08-12T22:30:08.341Z,74.83
2018-08-12T22:32:37.746Z,74.57
2018-08-12T22:35:08.051Z,74.20
2018-08-12T22:37:37.509Z,75.16
2018-08-12T22:40:07.520Z,74.99
2018-08-12T22:42:38.040Z,75.61
2018-08-12T22:45:09.751Z,75.91
2018-08-12T22:47:39.206Z,75.68
2018-08-12T22:50:09.266Z,75.30
2018-08-12T22:52:38.836Z,75.35
2018-08-12T22:55:08.973Z,75.91
2018-08-12T22:57:38.617Z,76.27
2018-08-12T23:00:17.824Z,76.16
2018-08-12T23:02:47.533Z,75.91
2018-08-12T23:05:17.023Z,76.35
2018-08-12T23:07:46.452Z,76.82
2018-08-12T23:10:15.948Z,76.48
2018-08-12T23:12:46.348Z,76.71
2018-08-12T23:15:32.425Z,76.52
2018-08-12T23:18:01.845Z,76.35
2018-08-12T23:20:31.233Z,76.34
2018-08-12T23:23:01.481Z,76.67
2018-08-12T23:25:31.017Z,76.96
2018-08-12T23:28:00.398Z,77.73
2018-08-12T23:30:29.820Z,78.03
2018-08-12T23:32:59.233Z,77.60
2018-08-12T23:35:28.660Z,78.34
2018-08-12T23:37:58.112Z,78.44
2018-08-12T23:40:27.615Z,78.44
2018-08-12T23:42:58.170Z,78.08
2018-08-12T23:45:27.583Z,78.60
2018-08-12T23:47:57.032Z,78.61
2018-08-12T23:50:26.488Z,78.12
2018-08-12T23:52:55.936Z,78.17
2018-08-12T23:55:25.341Z,78.21
2018-08-12T23:57:54.737Z,78.47
